createdAt,value
2023-03-21T00:04:25.567Z,8.84
2023-03-21T00:09:28.690Z,8.65
2023-03-21T00:14:38.152Z,8.50
2023-03-21T00:19:41.329Z,8.38
2023-03-21T00:24:43.234Z,8.34
2023-03-21T00:29:45.333Z,8.35
2023-03-21T00:35:01.497Z,8.34
2023-03-21T00:40:23.288Z,8.32
2023-03-21T00:45:28.681Z,8.30
2023-03-21T00:50:34.407Z,8.31
2023-03-21T00:55:39.065Z,8.33
2023-03-21T01:00:41.472Z,8.37
2023-03-21T01:06:05.189Z,8.40
2023-03-21T01:11:17.328Z,8.46
2023-03-21T01:16:19.852Z,8.50
2023-03-21T01:21:22.183Z,8.57
2023-03-21T01:26:24.223Z,8.65
2023-03-21T01:31:26.129Z,8.70
2023-03-21T01:36:28.595Z,8.77
2023-03-21T01:41:43.499Z,8.82
2023-03-21T01:47:07.660Z,8.82
2023-03-21T01:52:35.822Z,8.82
2023-03-21T01:57:58.472Z,8.85
2023-03-21T02:03:16.976Z,8.87
2023-03-21T02:08:39.269Z,8.90
2023-03-21T02:13:45.867Z,8.92
2023-03-21T02:19:20.105Z,8.93
2023-03-21T02:24:51.376Z,8.92
2023-03-21T02:30:26.514Z,8.93
2023-03-21T02:35:54.505Z,8.93
2023-03-21T02:41:18.064Z,8.91
2023-03-21T02:46:49.170Z,8.89
2023-03-21T02:52:12.177Z,8.86
2023-03-21T02:57:19.406Z,8.84
2023-03-21T03:02:27.255Z,8.79
2023-03-21T03:07:56.881Z,8.75
2023-03-21T03:13:09.758Z,8.74
2023-03-21T03:18:24.145Z,8.71
2023-03-21T03:23:43.516Z,8.68
2023-03-21T03:28:51.641Z,8.65
2023-03-21T03:33:58.741Z,8.60
2023-03-21T03:39:04.777Z,8.52
2023-03-21T03:44:07.293Z,8.44
2023-03-21T03:49:39.720Z,8.38
2023-03-21T03:54:46.076Z,8.34
2023-03-21T03:59:48.292Z,8.29
2023-03-21T04:05:09.546Z,8.25
2023-03-21T04:10:11.648Z,8.23
2023-03-21T04:15:16.324Z,8.19
2023-03-21T04:20:35.625Z,8.13
2023-03-21T04:25:47.585Z,8.06
2023-03-21T04:31:03.788Z,8.00
2023-03-21T04:36:26.345Z,7.96
2023-03-21T04:41:31.051Z,7.98
2023-03-21T04:46:34.036Z,7.98
2023-03-21T04:51:37.466Z,7.99
2023-03-21T04:56:39.954Z,7.97
2023-03-21T05:06:30.466Z,7.94
2023-03-21T05:11:33.474Z,7.91
2023-03-21T05:16:36.577Z,7.91
2023-03-21T05:21:41.984Z,7.94
2023-03-21T05:26:50.702Z,7.99
2023-03-21T05:31:53.744Z,8.05
2023-03-21T05:36:56.332Z,8.09
2023-03-21T05:41:59.961Z,8.11
2023-03-21T05:47:02.851Z,8.07
2023-03-21T05:52:11.880Z,8.06
2023-03-21T05:57:14.612Z,8.12
2023-03-21T06:02:34.110Z,8.19
2023-03-21T06:07:38.187Z,8.25
2023-03-21T06:12:43.064Z,8.31
2023-03-21T06:17:59.483Z,8.37
2023-03-21T06:23:01.655Z,8.54
2023-03-21T06:28:04.408Z,8.65
2023-03-21T06:33:08.004Z,8.62
2023-03-21T06:38:10.862Z,8.53
2023-03-21T06:43:13.927Z,8.42
2023-03-21T06:48:16.189Z,8.36
2023-03-21T06:53:29.925Z,8.35
2023-03-21T06:58:50.478Z,8.27
2023-03-21T07:04:21.109Z,8.18
2023-03-21T07:09:27.996Z,8.16
2023-03-21T07:14:34.610Z,8.15
2023-03-21T07:19:36.683Z,8.25
2023-03-21T07:24:38.385Z,8.44
2023-03-21T07:29:40.845Z,8.60
2023-03-21T07:34:42.626Z,8.69
2023-03-21T07:39:44.383Z,8.86
2023-03-21T07:44:46.499Z,9.11
2023-03-21T07:49:48.268Z,9.27
2023-03-21T07:54:49.946Z,9.37
2023-03-21T07:59:51.784Z,9.49
2023-03-21T08:04:53.508Z,9.60
2023-03-21T08:09:55.814Z,9.70
2023-03-21T08:15:00.598Z,9.76
2023-03-21T08:20:04.735Z,9.80
2023-03-21T08:25:08.577Z,9.73
2023-03-21T08:30:12.427Z,9.78
2023-03-21T08:35:16.791Z,9.98
2023-03-21T08:40:19.006Z,10.20
2023-03-21T08:45:20.975Z,10.16
2023-03-21T08:50:26.625Z,9.89
2023-03-21T08:55:28.469Z,9.86
2023-03-21T09:00:30.312Z,9.87
2023-03-21T09:05:32.080Z,9.91
2023-03-21T09:10:34.697Z,9.96
2023-03-21T09:15:36.685Z,9.94
2023-03-21T09:20:40.424Z,9.95
2023-03-21T09:25:45.151Z,9.91
2023-03-21T09:30:46.957Z,9.85
2023-03-21T09:35:51.747Z,9.72
2023-03-21T09:41:17.224Z,9.64
2023-03-21T09:46:31.944Z,9.67
2023-03-21T09:51:42.221Z,9.89
2023-03-21T09:56:45.489Z,9.94
2023-03-21T10:01:49.614Z,9.90
2023-03-21T10:06:59.814Z,9.93
2023-03-21T10:12:14.520Z,10.01
2023-03-21T10:17:26.376Z,10.05
2023-03-21T10:22:28.106Z,10.15
2023-03-21T10:27:30.711Z,10.17
2023-03-21T10:32:32.577Z,10.12
2023-03-21T10:37:36.342Z,10.11
2023-03-21T10:42:38.109Z,10.24
2023-03-21T10:47:40.103Z,10.48
2023-03-21T10:53:00.550Z,10.81
2023-03-21T10:58:08.743Z,11.11
2023-03-21T11:03:23.799Z,11.43
2023-03-21T11:08:27.398Z,11.73
2023-03-21T11:13:41.091Z,11.60
2023-03-21T11:18:45.567Z,11.39
2023-03-21T11:23:51.840Z,11.19
2023-03-21T11:28:55.306Z,11.11
2023-03-21T11:33:57.203Z,10.99
2023-03-21T11:39:12.881Z,10.72
2023-03-21T11:44:33.658Z,10.62
2023-03-21T11:49:35.499Z,10.77
2023-03-21T11:54:47.292Z,10.68
2023-03-21T11:59:57.356Z,10.50
2023-03-21T12:05:21.792Z,10.40
2023-03-21T12:10:49.158Z,10.45
2023-03-21T12:16:27.744Z,10.62
2023-03-21T12:22:03.249Z,10.77
2023-03-21T12:27:37.023Z,10.93
2023-03-21T12:32:44.668Z,11.15
2023-03-21T12:38:01.940Z,11.40
2023-03-21T12:43:21.872Z,11.61
2023-03-21T12:48:47.825Z,11.83
2023-03-21T12:54:15.823Z,11.89
2023-03-21T12:59:25.270Z,12.18
2023-03-21T13:04:49.861Z,12.52
2023-03-21T13:09:55.148Z,12.62
2023-03-21T13:15:23.179Z,12.79
2023-03-21T13:20:44.077Z,12.73
2023-03-21T13:25:51.528Z,12.72
2023-03-21T13:31:14.048Z,12.76
2023-03-21T13:36:25.854Z,12.74
2023-03-21T13:41:35.220Z,12.90
2023-03-21T13:46:53.452Z,13.10
2023-03-21T13:51:58.448Z,13.35
2023-03-21T13:57:04.724Z,13.19
2023-03-21T14:02:15.586Z,13.11
2023-03-21T14:07:27.187Z,13.22
2023-03-21T14:12:34.804Z,13.18
2023-03-21T14:17:36.854Z,12.83
2023-03-21T14:22:42.134Z,12.93
2023-03-21T14:27:48.433Z,12.98
2023-03-21T14:32:50.761Z,12.97
2023-03-21T14:37:52.563Z,12.91
2023-03-21T14:42:55.433Z,12.78
2023-03-21T14:48:05.667Z,12.45
2023-03-21T14:53:11.781Z,12.25
2023-03-21T14:58:17.688Z,12.42
2023-03-21T15:03:22.264Z,12.36
2023-03-21T15:08:26.430Z,12.23
2023-03-21T15:13:32.048Z,12.17
2023-03-21T15:18:37.572Z,12.26
2023-03-21T15:23:48.292Z,12.44
2023-03-21T15:28:56.088Z,12.49
2023-03-21T15:33:57.989Z,12.45
2023-03-21T15:39:06.478Z,12.50
2023-03-21T15:44:08.115Z,12.51
2023-03-21T15:49:16.190Z,12.41
2023-03-21T15:54:31.366Z,12.30
2023-03-21T15:59:36.981Z,12.26
2023-03-21T16:04:55.941Z,12.13
2023-03-21T16:10:01.027Z,11.97
2023-03-21T16:15:02.985Z,12.03
2023-03-21T16:20:32.581Z,12.15
2023-03-21T16:25:35.444Z,12.23
2023-03-21T16:30:38.730Z,12.21
2023-03-21T16:35:40.742Z,12.21
2023-03-21T16:40:44.036Z,11.95
2023-03-21T16:45:45.857Z,11.73
2023-03-21T16:50:48.293Z,11.54
2023-03-21T16:55:50.353Z,11.28
2023-03-21T17:00:52.137Z,11.03
2023-03-21T17:05:53.956Z,10.82
2023-03-21T17:10:55.924Z,10.71
2023-03-21T17:15:57.821Z,10.62
2023-03-21T17:20:59.494Z,10.59
2023-03-21T17:26:02.311Z,10.57
2023-03-21T17:31:06.590Z,10.53
2023-03-21T17:36:24.519Z,10.52
2023-03-21T17:41:27.430Z,10.50
2023-03-21T17:46:34.373Z,10.46
2023-03-21T17:51:36.261Z,10.45
2023-03-21T17:56:37.975Z,10.43
2023-03-21T18:01:39.917Z,10.39
2023-03-21T18:06:41.782Z,10.36
2023-03-21T18:11:46.006Z,10.33
2023-03-21T18:16:50.684Z,10.29
2023-03-21T18:21:52.498Z,10.29
2023-03-21T18:26:54.715Z,10.25
2023-03-21T18:32:06.890Z,10.17
2023-03-21T18:37:13.144Z,10.07
2023-03-21T18:42:18.859Z,9.98
2023-03-21T18:47:23.022Z,9.95
2023-03-21T18:52:27.091Z,9.92
2023-03-21T18:57:38.227Z,9.81
2023-03-21T19:02:45.651Z,9.74
2023-03-21T19:07:49.277Z,9.66
2023-03-21T19:12:52.820Z,9.59
2023-03-21T19:18:30.693Z,9.52
2023-03-21T19:23:18.660Z,9.45
2023-03-21T19:28:20.837Z,9.42
2023-03-21T19:33:24.550Z,9.38
2023-03-21T19:38:26.484Z,9.37
2023-03-21T19:43:33.001Z,9.36
2023-03-21T19:48:38.037Z,9.38
2023-03-21T19:53:40.491Z,9.47
2023-03-21T19:58:42.363Z,9.56
2023-03-21T20:03:47.492Z,9.63
2023-03-21T20:09:27.177Z,9.63
2023-03-21T20:14:12.591Z,9.59
2023-03-21T20:19:16.273Z,9.58
2023-03-21T20:24:18.553Z,9.56
2023-03-21T20:34:44.470Z,9.54
2023-03-21T20:39:46.594Z,9.54
2023-03-21T20:44:58.312Z,9.55
2023-03-21T20:50:01.085Z,9.59
2023-03-21T20:55:03.195Z,9.59
2023-03-21T21:00:13.562Z,9.58
2023-03-21T21:05:28.391Z,9.54
2023-03-21T21:10:33.562Z,9.50
2023-03-21T21:15:35.704Z,9.52
2023-03-21T21:20:38.779Z,9.53
2023-03-21T21:25:40.791Z,9.53
2023-03-21T21:30:42.868Z,9.54
2023-03-21T21:35:48.069Z,9.56
2023-03-21T21:40:51.808Z,9.55
2023-03-21T21:45:54.199Z,9.51
2023-03-21T21:50:55.985Z,9.47
2023-03-21T21:55:57.642Z,9.38
2023-03-21T22:01:01.897Z,9.29
2023-03-21T22:06:05.019Z,9.14
2023-03-21T22:11:07.836Z,9.01
2023-03-21T22:16:14.324Z,8.95
2023-03-21T22:21:16.403Z,8.89
2023-03-21T22:26:18.213Z,8.84
2023-03-21T22:31:20.702Z,8.84
2023-03-21T22:36:22.484Z,8.86
2023-03-21T22:41:25.425Z,8.84
2023-03-21T22:46:28.086Z,8.75
2023-03-21T22:51:32.821Z,8.62
2023-03-21T22:56:34.686Z,8.38
2023-03-21T23:01:36.466Z,8.08
2023-03-21T23:06:39.019Z,8.05
2023-03-21T23:11:41.004Z,7.93
2023-03-21T23:16:45.057Z,7.77
2023-03-21T23:21:48.226Z,7.66
2023-03-21T23:26:50.422Z,7.55
2023-03-21T23:31:52.218Z,7.38
2023-03-21T23:36:53.989Z,7.28
2023-03-21T23:41:55.921Z,7.21
2023-03-21T23:46:57.691Z,7.02
2023-03-21T23:51:59.346Z,6.99
2023-03-21T23:57:01.496Z,6.99
